createdAt,value
2022-08-16T00:36:49.538Z,22.63
2022-08-16T00:37:58.882Z,22.59
2022-08-16T00:39:58.380Z,22.62
2022-08-16T00:40:54.067Z,22.70
2022-08-16T00:42:57.539Z,22.62
2022-08-16T00:43:57.526Z,22.68
2022-08-16T00:46:22.432Z,22.59
2022-08-16T00:47:06.330Z,22.60
2022-08-16T00:48:54.692Z,22.72
2022-08-16T00:49:56.613Z,22.68
2022-08-16T00:51:58.667Z,22.65
2022-08-16T00:52:59.184Z,22.57
2022-08-16T00:54:51.614Z,22.54
2022-08-16T00:55:51.596Z,22.66
2022-08-16T00:58:00.227Z,22.63
2022-08-16T00:58:55.628Z,22.51
2022-08-16T01:00:59.661Z,22.54
2022-08-16T01:01:59.650Z,22.62
2022-08-16T01:03:52.798Z,22.66
2022-08-16T01:05:11.152Z,22.62
2022-08-16T01:07:01.697Z,22.53
2022-08-16T01:07:56.790Z,22.54
2022-08-16T01:10:01.948Z,22.47
2022-08-16T01:11:02.515Z,22.45
2022-08-16T01:13:06.422Z,22.45
2022-08-16T01:14:06.011Z,22.41
2022-08-16T01:16:10.374Z,22.50
2022-08-16T01:17:10.065Z,22.43
2022-08-16T01:19:14.394Z,22.44
2022-08-16T01:20:23.707Z,22.32
2022-08-16T01:22:49.688Z,22.28
2022-08-16T01:23:08.770Z,22.41
2022-08-16T01:25:00.109Z,22.36
2022-08-16T01:26:35.040Z,22.36
2022-08-16T01:28:04.741Z,22.28
2022-08-16T01:29:04.136Z,22.29
2022-08-16T01:30:04.124Z,22.29
2022-08-16T01:31:04.120Z,22.38
2022-08-16T01:32:04.139Z,22.30
2022-08-16T01:33:14.762Z,22.28
2022-08-16T01:34:04.126Z,22.30
2022-08-16T01:35:04.127Z,22.29
2022-08-16T01:36:11.709Z,22.30
2022-08-16T01:37:04.136Z,22.29
2022-08-16T01:38:04.135Z,22.20
2022-08-16T01:39:04.134Z,22.26
2022-08-16T01:40:07.227Z,22.23
2022-08-16T01:41:04.142Z,22.26
2022-08-16T01:42:04.151Z,22.32
2022-08-16T01:43:04.144Z,22.29
2022-08-16T01:44:04.152Z,22.26
2022-08-16T01:45:04.152Z,22.33
2022-08-16T01:46:30.176Z,22.28
2022-08-16T01:47:04.166Z,22.29
2022-08-16T01:48:04.160Z,22.38
2022-08-16T01:49:04.174Z,22.23
2022-08-16T01:50:41.732Z,22.30
2022-08-16T01:51:09.052Z,22.26
2022-08-16T01:52:04.178Z,22.26
2022-08-16T01:53:04.198Z,22.14
2022-08-16T01:54:04.179Z,22.22
2022-08-16T01:55:04.182Z,22.14
2022-08-16T01:56:04.204Z,22.20
2022-08-16T01:57:04.184Z,22.11
2022-08-16T01:58:04.194Z,22.18
2022-08-16T01:59:04.186Z,22.10
2022-08-16T02:00:04.190Z,22.14
2022-08-16T02:01:04.250Z,22.11
2022-08-16T02:02:04.222Z,22.13
2022-08-16T02:03:04.192Z,22.08
2022-08-16T02:04:11.270Z,22.17
2022-08-16T02:05:04.203Z,22.10
2022-08-16T02:06:04.201Z,22.13
2022-08-16T02:07:04.201Z,22.10
2022-08-16T02:08:04.217Z,22.15
2022-08-16T02:09:05.281Z,22.18
2022-08-16T02:10:04.238Z,22.18
2022-08-16T02:11:04.219Z,22.18
2022-08-16T02:12:50.856Z,22.14
2022-08-16T02:13:04.382Z,22.15
2022-08-16T02:14:04.239Z,22.18
2022-08-16T02:15:04.224Z,22.23
2022-08-16T02:16:04.234Z,22.23
2022-08-16T02:17:04.669Z,22.28
2022-08-16T02:18:04.233Z,22.20
2022-08-16T02:19:04.226Z,22.23
2022-08-16T02:20:04.285Z,22.15
2022-08-16T02:21:04.307Z,22.18
2022-08-16T02:22:08.942Z,22.18
2022-08-16T02:23:05.896Z,22.15
2022-08-16T02:24:04.242Z,22.13
2022-08-16T02:25:04.242Z,22.10
2022-08-16T02:26:04.243Z,22.10
2022-08-16T02:27:04.302Z,22.14
2022-08-16T02:28:04.256Z,22.13
2022-08-16T02:29:04.265Z,22.15
2022-08-16T02:30:04.929Z,22.17
2022-08-16T02:31:04.255Z,22.17
2022-08-16T02:32:50.099Z,22.04
2022-08-16T02:33:04.622Z,22.02
2022-08-16T02:34:06.563Z,22.11
2022-08-16T02:35:04.273Z,22.11
2022-08-16T02:36:04.285Z,22.08
2022-08-16T02:37:04.275Z,22.04
2022-08-16T02:38:08.855Z,22.06
2022-08-16T02:39:04.277Z,22.00
2022-08-16T02:40:04.316Z,22.07
2022-08-16T02:41:09.772Z,21.99
2022-08-16T02:42:04.279Z,22.07
2022-08-16T02:43:04.282Z,22.04
2022-08-16T02:44:04.287Z,22.07
2022-08-16T02:45:04.290Z,22.07
2022-08-16T02:46:07.445Z,22.08
2022-08-16T02:47:04.293Z,22.00
2022-08-16T02:48:29.849Z,21.95
2022-08-16T02:49:04.300Z,22.06
2022-08-16T02:50:55.019Z,22.07
2022-08-16T02:51:06.977Z,22.06
2022-08-16T02:52:04.313Z,22.00
2022-08-16T02:53:04.307Z,21.95
2022-08-16T02:54:04.319Z,21.96
2022-08-16T02:55:04.323Z,22.00
2022-08-16T02:56:04.323Z,21.93
2022-08-16T02:57:04.336Z,21.89
2022-08-16T02:58:04.317Z,21.88
2022-08-16T02:59:11.400Z,21.95
2022-08-16T03:00:34.395Z,21.91
2022-08-16T03:01:04.589Z,21.89
2022-08-16T03:02:08.873Z,21.88
2022-08-16T03:03:04.327Z,21.92
2022-08-16T03:04:29.278Z,21.89
2022-08-16T03:05:04.349Z,21.89
2022-08-16T03:06:04.336Z,21.95
2022-08-16T03:07:04.443Z,21.96
2022-08-16T03:08:04.335Z,21.93
2022-08-16T03:09:04.357Z,21.85
2022-08-16T03:10:04.350Z,21.96
2022-08-16T03:11:04.391Z,21.91
2022-08-16T03:12:04.358Z,21.95
2022-08-16T03:13:04.491Z,21.88
2022-08-16T03:14:07.382Z,21.92
2022-08-16T03:15:04.363Z,21.91
2022-08-16T03:16:04.361Z,21.93
2022-08-16T03:17:04.374Z,21.93
2022-08-16T03:18:04.371Z,21.95
2022-08-16T03:19:04.382Z,21.88
2022-08-16T03:20:04.359Z,21.96
2022-08-16T03:21:04.384Z,21.83
2022-08-16T03:22:04.361Z,21.89
2022-08-16T03:23:04.363Z,21.89
2022-08-16T03:24:04.367Z,21.88
2022-08-16T03:25:04.371Z,21.85
2022-08-16T03:26:04.371Z,21.80
2022-08-16T03:27:04.377Z,21.82
2022-08-16T03:28:04.373Z,21.79
2022-08-16T03:29:04.381Z,21.83
2022-08-16T03:30:17.469Z,21.88
2022-08-16T03:31:04.387Z,21.82
2022-08-16T03:32:04.441Z,21.76
2022-08-16T03:33:04.390Z,21.75
2022-08-16T03:34:04.407Z,21.75
2022-08-16T03:35:04.398Z,21.66
2022-08-16T03:36:30.164Z,21.73
2022-08-16T03:37:04.460Z,21.79
2022-08-16T03:38:04.411Z,21.66
2022-08-16T03:39:04.419Z,21.76
2022-08-16T03:40:04.416Z,21.88
2022-08-16T03:41:05.059Z,21.80
2022-08-16T03:42:04.406Z,21.80
2022-08-16T03:43:19.763Z,21.69
2022-08-16T03:44:04.403Z,21.76
2022-08-16T03:45:04.789Z,21.80
2022-08-16T03:46:04.490Z,21.80
2022-08-16T03:47:04.421Z,21.77
2022-08-16T03:48:04.415Z,21.82
2022-08-16T03:49:04.421Z,21.82
2022-08-16T03:50:04.427Z,21.72
2022-08-16T03:51:04.434Z,21.75
2022-08-16T03:52:04.454Z,21.76
2022-08-16T03:53:06.034Z,21.72
2022-08-16T03:54:04.444Z,21.72
2022-08-16T03:55:04.449Z,21.66
2022-08-16T03:56:04.442Z,21.64
2022-08-16T03:57:05.186Z,21.76
2022-08-16T03:58:04.453Z,21.67
2022-08-16T03:59:04.454Z,21.64
2022-08-16T04:00:05.649Z,21.73
2022-08-16T04:01:04.560Z,21.60
2022-08-16T04:02:10.648Z,21.58
2022-08-16T04:03:04.450Z,21.70
2022-08-16T04:04:04.448Z,21.72
2022-08-16T04:05:04.460Z,21.64
2022-08-16T04:06:04.454Z,21.67
2022-08-16T04:07:05.714Z,21.72
2022-08-16T04:08:23.882Z,21.61
2022-08-16T04:09:04.463Z,21.69
2022-08-16T04:10:36.262Z,21.66
2022-08-16T04:11:04.478Z,21.72
2022-08-16T04:12:04.464Z,21.67
2022-08-16T04:13:04.909Z,21.73
2022-08-16T04:14:08.582Z,21.76
2022-08-16T04:15:04.476Z,21.69
2022-08-16T04:16:06.555Z,21.69
2022-08-16T04:17:04.474Z,21.66
2022-08-16T04:18:04.492Z,21.62
2022-08-16T04:19:04.913Z,21.61
2022-08-16T04:20:04.508Z,21.64
2022-08-16T04:21:04.479Z,21.73
2022-08-16T04:22:08.811Z,21.66
2022-08-16T04:23:04.503Z,21.72
2022-08-16T04:24:07.961Z,21.60
2022-08-16T04:25:04.484Z,21.66
2022-08-16T04:26:04.516Z,21.72
2022-08-16T04:27:04.534Z,21.69
2022-08-16T04:28:52.205Z,21.64
2022-08-16T04:29:16.350Z,21.69
2022-08-16T04:30:04.501Z,21.72
2022-08-16T04:31:04.503Z,21.75
2022-08-16T04:32:04.513Z,21.77
2022-08-16T04:33:04.675Z,21.80
2022-08-16T04:34:04.510Z,21.83
2022-08-16T04:35:08.457Z,21.73
2022-08-16T04:36:04.826Z,21.75
2022-08-16T04:37:04.514Z,21.76
2022-08-16T04:38:10.558Z,21.76
2022-08-16T04:39:04.523Z,21.79
2022-08-16T04:40:05.733Z,21.88
2022-08-16T04:41:04.532Z,21.79
2022-08-16T04:42:11.316Z,21.83
2022-08-16T04:43:04.528Z,21.82
2022-08-16T04:44:32.886Z,21.85
2022-08-16T04:45:04.523Z,21.83
2022-08-16T04:46:04.539Z,21.91
2022-08-16T04:47:23.991Z,21.85
2022-08-16T04:48:04.536Z,21.82
2022-08-16T04:49:04.537Z,21.82
2022-08-16T04:50:04.585Z,21.89
2022-08-16T04:51:11.679Z,21.88
2022-08-16T04:52:04.566Z,21.95
2022-08-16T04:53:04.551Z,21.93
2022-08-16T04:54:04.600Z,21.91
2022-08-16T04:55:04.566Z,21.85
2022-08-16T04:56:04.556Z,21.92
2022-08-16T04:57:04.562Z,21.96
2022-08-16T04:58:04.568Z,21.91
2022-08-16T04:59:04.559Z,21.98
2022-08-16T05:00:31.750Z,21.98
2022-08-16T05:01:07.875Z,22.06
2022-08-16T05:02:04.599Z,22.11
2022-08-16T05:03:07.454Z,22.02
2022-08-16T05:04:04.564Z,22.17
2022-08-16T05:05:04.586Z,22.18
2022-08-16T05:06:05.278Z,22.15
2022-08-16T05:07:04.571Z,22.18
2022-08-16T05:08:29.700Z,22.15
2022-08-16T05:09:04.597Z,22.17
2022-08-16T05:10:04.582Z,22.13
2022-08-16T05:11:05.568Z,22.20
2022-08-16T05:12:04.598Z,22.20
2022-08-16T05:13:04.591Z,22.26
2022-08-16T05:14:07.130Z,22.26
2022-08-16T05:15:04.597Z,22.33
2022-08-16T05:16:04.619Z,22.26
2022-08-16T05:17:04.632Z,22.32
2022-08-16T05:18:04.642Z,22.38
2022-08-16T05:19:04.605Z,22.29
2022-08-16T05:20:39.402Z,22.38
2022-08-16T05:21:09.753Z,22.23
2022-08-16T05:22:04.615Z,22.39
2022-08-16T05:23:04.626Z,22.39
2022-08-16T05:24:06.915Z,22.39
2022-08-16T05:25:09.043Z,22.36
2022-08-16T05:26:04.632Z,22.44
2022-08-16T05:27:11.536Z,22.43
2022-08-16T05:28:04.662Z,22.43
2022-08-16T05:29:04.801Z,22.39
2022-08-16T05:30:35.812Z,22.47
2022-08-16T05:31:04.633Z,22.44
2022-08-16T05:32:04.637Z,22.43
2022-08-16T05:33:04.646Z,22.47
2022-08-16T05:34:04.673Z,22.47
2022-08-16T05:35:04.669Z,22.43
2022-08-16T05:36:04.646Z,22.47
2022-08-16T05:37:04.654Z,22.53
2022-08-16T05:38:04.653Z,22.48
2022-08-16T05:39:04.655Z,22.44
2022-08-16T05:40:06.081Z,22.54
2022-08-16T05:41:04.668Z,22.51
2022-08-16T05:42:04.663Z,22.55
2022-08-16T05:43:04.677Z,22.55
2022-08-16T05:44:05.546Z,22.57
2022-08-16T05:45:06.849Z,22.63
2022-08-16T05:46:04.697Z,22.55
2022-08-16T05:47:04.682Z,22.65
2022-08-16T05:48:04.682Z,22.72
2022-08-16T05:49:06.023Z,22.65
2022-08-16T05:50:04.686Z,22.65
2022-08-16T05:51:04.754Z,22.69
2022-08-16T05:52:04.697Z,22.60
2022-08-16T05:53:05.231Z,22.72
2022-08-16T05:54:04.696Z,22.75
2022-08-16T05:55:04.703Z,22.76
2022-08-16T05:56:04.702Z,22.76
2022-08-16T05:57:04.706Z,22.78
2022-08-16T05:58:04.709Z,22.78
2022-08-16T05:59:06.112Z,22.76
2022-08-16T06:00:09.209Z,22.78
2022-08-16T06:01:04.749Z,22.96
2022-08-16T06:02:06.136Z,22.93
2022-08-16T06:03:04.725Z,22.96
2022-08-16T06:04:04.726Z,23.02
2022-08-16T06:05:04.734Z,23.13
2022-08-16T06:06:04.754Z,23.17
2022-08-16T06:07:06.925Z,23.23
2022-08-16T06:08:04.748Z,23.36
2022-08-16T06:09:04.756Z,23.32
2022-08-16T06:10:04.765Z,23.40
2022-08-16T06:11:09.548Z,23.36
2022-08-16T06:12:04.774Z,23.48
2022-08-16T06:13:04.851Z,23.55
2022-08-16T06:14:04.815Z,23.65
2022-08-16T06:15:08.008Z,23.71
2022-08-16T06:16:04.808Z,23.84
2022-08-16T06:17:05.241Z,23.99
2022-08-16T06:18:04.836Z,24.08
2022-08-16T06:19:05.133Z,24.16
2022-08-16T06:20:04.860Z,24.18
2022-08-16T06:21:04.864Z,24.30
2022-08-16T06:22:04.877Z,24.45
2022-08-16T06:23:17.111Z,24.63
2022-08-16T06:24:54.155Z,24.74
2022-08-16T06:25:04.901Z,24.85
2022-08-16T06:26:07.656Z,25.04
2022-08-16T06:27:04.925Z,25.11
2022-08-16T06:28:08.834Z,25.16
2022-08-16T06:29:04.948Z,25.31
2022-08-16T06:30:04.960Z,25.35
2022-08-16T06:31:04.979Z,25.58
2022-08-16T06:32:04.997Z,25.63
2022-08-16T06:33:05.013Z,25.83
2022-08-16T06:34:05.027Z,25.93
2022-08-16T06:35:05.023Z,25.99
2022-08-16T06:36:05.038Z,26.07
2022-08-16T06:37:05.110Z,26.25
2022-08-16T06:38:05.074Z,26.16
2022-08-16T06:39:06.077Z,26.29
2022-08-16T06:40:05.152Z,26.47
2022-08-16T06:41:05.427Z,26.55
2022-08-16T06:42:05.116Z,26.65
2022-08-16T06:43:05.200Z,26.68
2022-08-16T06:44:05.144Z,26.78
2022-08-16T06:45:05.159Z,26.78
2022-08-16T06:46:05.178Z,27.00
2022-08-16T06:47:05.197Z,27.07
2022-08-16T06:48:05.222Z,27.15
2022-08-16T06:49:05.385Z,27.26
2022-08-16T06:50:05.232Z,27.29
2022-08-16T06:51:05.654Z,27.36
2022-08-16T06:52:05.297Z,27.42
2022-08-16T06:53:09.349Z,27.54
2022-08-16T06:54:05.284Z,27.48
2022-08-16T06:55:05.307Z,27.48
2022-08-16T06:56:05.333Z,27.45
2022-08-16T06:57:05.362Z,27.42
2022-08-16T06:58:08.847Z,27.49
2022-08-16T06:59:05.360Z,27.54
2022-08-16T07:00:05.373Z,27.54
2022-08-16T07:01:09.651Z,27.52
2022-08-16T07:02:05.522Z,27.63
2022-08-16T07:03:27.619Z,27.54
2022-08-16T07:04:12.166Z,27.60
2022-08-16T07:05:15.230Z,27.55
2022-08-16T07:06:05.469Z,27.58
2022-08-16T07:07:05.488Z,27.67
2022-08-16T07:08:05.571Z,27.75
2022-08-16T07:09:09.689Z,27.77
2022-08-16T07:10:08.367Z,27.78
2022-08-16T07:11:05.538Z,27.86
2022-08-16T07:12:05.937Z,27.98
2022-08-16T07:13:11.471Z,27.98
2022-08-16T07:14:24.568Z,28.11
2022-08-16T07:15:05.603Z,28.11
2022-08-16T07:16:05.630Z,28.12
2022-08-16T07:17:08.305Z,28.17
2022-08-16T07:18:05.682Z,28.15
2022-08-16T07:19:05.673Z,28.30
2022-08-16T07:20:34.878Z,28.26
2022-08-16T07:21:05.700Z,28.35
2022-08-16T07:22:05.720Z,28.45
2022-08-16T07:23:13.211Z,28.41
2022-08-16T07:24:06.338Z,28.52
2022-08-16T07:25:05.768Z,28.52
2022-08-16T07:26:05.808Z,28.56
2022-08-16T07:27:08.565Z,28.59
2022-08-16T07:28:05.816Z,28.69
2022-08-16T07:29:05.844Z,28.70
2022-08-16T07:30:05.858Z,28.69
2022-08-16T07:31:05.863Z,28.76
2022-08-16T07:32:05.879Z,28.81
2022-08-16T07:33:05.901Z,28.85
2022-08-16T07:34:05.910Z,28.93
2022-08-16T07:35:06.004Z,28.89
2022-08-16T07:36:05.947Z,28.81
2022-08-16T07:37:05.986Z,28.91
2022-08-16T07:38:05.991Z,28.98
2022-08-16T07:39:06.011Z,29.07
2022-08-16T07:40:11.086Z,29.14
2022-08-16T07:41:09.931Z,29.24
2022-08-16T07:42:06.883Z,29.34
2022-08-16T07:43:06.113Z,29.31
2022-08-16T07:44:16.149Z,29.29
2022-08-16T07:45:10.170Z,29.31
2022-08-16T07:46:06.117Z,29.22
2022-08-16T07:47:06.149Z,29.23
2022-08-16T07:48:11.602Z,29.34
2022-08-16T07:49:11.390Z,29.29
2022-08-16T07:50:07.607Z,29.36
2022-08-16T07:51:09.248Z,29.44
2022-08-16T07:52:19.140Z,29.39
2022-08-16T07:53:06.243Z,29.35
2022-08-16T07:54:09.325Z,29.29
2022-08-16T07:55:06.291Z,29.38
2022-08-16T07:56:06.291Z,29.41
2022-08-16T07:57:06.330Z,29.41
2022-08-16T07:58:06.344Z,29.41
2022-08-16T07:59:06.359Z,29.50
2022-08-16T08:00:06.366Z,29.41
2022-08-16T08:01:10.684Z,29.42
2022-08-16T08:02:06.427Z,29.41
2022-08-16T08:03:06.419Z,29.39
2022-08-16T08:04:06.447Z,29.45
2022-08-16T08:05:06.452Z,29.47
2022-08-16T08:06:06.512Z,29.53
2022-08-16T08:07:08.953Z,29.54
2022-08-16T08:08:11.497Z,29.45
2022-08-16T08:09:06.525Z,29.39
2022-08-16T08:10:06.549Z,29.54
2022-08-16T08:11:09.156Z,29.41
2022-08-16T08:12:06.574Z,29.53
2022-08-16T08:13:06.605Z,29.44
2022-08-16T08:14:07.835Z,29.41
2022-08-16T08:15:09.772Z,29.38
2022-08-16T08:16:06.640Z,29.42
2022-08-16T08:17:06.669Z,29.41
2022-08-16T08:18:29.982Z,29.49
2022-08-16T08:19:06.710Z,29.49
2022-08-16T08:20:06.718Z,29.56
2022-08-16T08:21:06.735Z,29.51
2022-08-16T08:22:06.732Z,29.50
2022-08-16T08:23:06.743Z,29.49
2022-08-16T08:24:09.346Z,29.61
2022-08-16T08:25:06.798Z,29.60
2022-08-16T08:26:10.027Z,29.68
2022-08-16T08:27:06.811Z,29.56
2022-08-16T08:28:06.819Z,29.60
2022-08-16T08:29:08.532Z,29.61
2022-08-16T08:30:49.222Z,29.60
2022-08-16T08:31:06.875Z,29.53
2022-08-16T08:32:59.773Z,29.61
2022-08-16T08:33:07.174Z,29.51
2022-08-16T08:34:06.916Z,29.66
2022-08-16T08:35:07.059Z,29.51
2022-08-16T08:36:06.939Z,29.51
2022-08-16T08:37:06.950Z,29.59
2022-08-16T08:38:06.946Z,29.50
2022-08-16T08:39:13.068Z,29.45
2022-08-16T08:40:07.018Z,29.42
2022-08-16T08:41:06.993Z,29.42
2022-08-16T08:42:06.994Z,29.47
2022-08-16T08:43:12.662Z,29.42
2022-08-16T08:44:28.563Z,29.26
2022-08-16T08:45:07.036Z,29.34
2022-08-16T08:46:18.441Z,29.38
2022-08-16T08:47:09.254Z,29.34
2022-08-16T08:48:07.069Z,29.27
2022-08-16T08:49:07.077Z,29.39
2022-08-16T08:50:07.090Z,29.44
2022-08-16T08:51:09.006Z,29.38
2022-08-16T08:52:08.121Z,29.49
2022-08-16T08:53:07.157Z,29.44
2022-08-16T08:54:09.305Z,29.36
2022-08-16T08:55:10.605Z,29.44
2022-08-16T08:56:22.940Z,29.41
2022-08-16T08:57:07.162Z,29.42
2022-08-16T08:58:07.158Z,29.39
2022-08-16T08:59:13.540Z,29.38
2022-08-16T09:00:07.976Z,29.42
2022-08-16T09:01:07.210Z,29.38
2022-08-16T09:02:07.213Z,29.29
2022-08-16T09:03:07.994Z,29.26
2022-08-16T09:04:07.261Z,29.20
2022-08-16T09:05:14.953Z,29.19
2022-08-16T09:06:07.254Z,29.19
2022-08-16T09:07:07.258Z,29.19
2022-08-16T09:08:07.263Z,29.14
2022-08-16T09:09:07.269Z,29.14
2022-08-16T09:10:20.677Z,29.14
2022-08-16T09:11:07.475Z,29.07
2022-08-16T09:12:07.317Z,28.89
2022-08-16T09:13:08.046Z,28.93
2022-08-16T09:14:07.327Z,28.91
2022-08-16T09:15:07.321Z,28.78
2022-08-16T09:16:07.352Z,28.82
2022-08-16T09:17:21.614Z,28.82
2022-08-16T09:18:25.451Z,28.89
2022-08-16T09:20:07.366Z,28.76
2022-08-16T09:21:09.548Z,28.72
2022-08-16T09:22:07.395Z,28.69
2022-08-16T09:23:07.387Z,28.74
2022-08-16T09:24:10.055Z,28.72
2022-08-16T09:25:10.083Z,28.78
2022-08-16T09:26:44.574Z,28.86
2022-08-16T09:27:07.451Z,28.84
2022-08-16T09:28:08.923Z,28.79
2022-08-16T09:29:16.899Z,28.91
2022-08-16T09:30:33.796Z,28.93
2022-08-16T09:31:07.465Z,28.81
2022-08-16T09:32:07.623Z,28.84
2022-08-16T09:33:07.669Z,28.70
2022-08-16T09:34:07.496Z,28.64
2022-08-16T09:35:07.506Z,28.67
2022-08-16T09:36:12.015Z,28.70
2022-08-16T09:37:17.672Z,28.70
2022-08-16T09:38:08.771Z,28.66
2022-08-16T09:39:07.526Z,28.49
2022-08-16T09:40:31.780Z,28.56
2022-08-16T09:41:14.854Z,28.52
2022-08-16T09:42:07.566Z,28.49
2022-08-16T09:43:07.723Z,28.47
2022-08-16T09:45:10.619Z,28.57
2022-08-16T09:45:13.040Z,28.54
2022-08-16T09:46:44.418Z,28.47
2022-08-16T09:47:10.352Z,28.48
2022-08-16T09:48:07.583Z,28.48
2022-08-16T09:49:08.500Z,28.26
2022-08-16T09:50:11.715Z,28.39
2022-08-16T09:51:07.619Z,28.22
2022-08-16T09:52:07.636Z,28.25
2022-08-16T09:53:07.629Z,28.23
2022-08-16T09:54:09.607Z,28.25
2022-08-16T09:55:07.657Z,28.20
2022-08-16T09:56:11.480Z,28.32
2022-08-16T09:57:07.660Z,28.38
2022-08-16T09:58:07.677Z,28.44
2022-08-16T09:59:08.165Z,28.45
2022-08-16T10:00:44.931Z,28.44
2022-08-16T10:01:08.452Z,28.49
2022-08-16T10:02:26.117Z,28.49
2022-08-16T10:03:10.102Z,28.51
2022-08-16T10:04:29.749Z,28.47
2022-08-16T10:05:07.810Z,28.57
2022-08-16T10:06:11.251Z,28.49
2022-08-16T10:07:15.198Z,28.47
2022-08-16T10:08:25.406Z,28.45
2022-08-16T10:09:10.440Z,28.32
2022-08-16T10:10:11.560Z,28.29
2022-08-16T10:11:09.449Z,28.27
2022-08-16T10:12:11.323Z,28.26
2022-08-16T10:13:07.821Z,28.19
2022-08-16T10:14:07.792Z,28.12
2022-08-16T10:15:07.807Z,28.27
2022-08-16T10:16:07.853Z,28.30
2022-08-16T10:17:07.809Z,28.26
2022-08-16T10:19:01.033Z,28.25
2022-08-16T10:19:07.981Z,28.25
2022-08-16T10:20:07.834Z,28.22
2022-08-16T10:21:07.841Z,28.19
2022-08-16T10:22:07.848Z,28.22
2022-08-16T10:23:09.808Z,28.27
2022-08-16T10:24:07.861Z,28.33
2022-08-16T10:25:07.871Z,28.25
2022-08-16T10:27:16.138Z,28.27
2022-08-16T10:27:26.537Z,28.27
2022-08-16T10:28:28.085Z,28.22
2022-08-16T10:29:07.906Z,28.14
2022-08-16T10:30:24.948Z,28.00
2022-08-16T10:31:07.947Z,27.90
2022-08-16T10:32:08.069Z,27.85
2022-08-16T10:33:07.933Z,27.78
2022-08-16T10:35:07.957Z,27.54
2022-08-16T10:36:07.960Z,27.49
2022-08-16T10:37:07.973Z,27.59
2022-08-16T10:38:09.638Z,27.55
2022-08-16T10:39:08.538Z,27.55
2022-08-16T10:40:28.804Z,27.54
2022-08-16T10:41:09.018Z,27.49
2022-08-16T10:42:08.005Z,27.51
2022-08-16T10:43:08.379Z,27.51
2022-08-16T10:44:09.359Z,27.55
2022-08-16T10:45:08.020Z,27.52
2022-08-16T10:46:39.470Z,27.54
2022-08-16T10:47:09.048Z,27.58
2022-08-16T10:48:28.034Z,27.60
2022-08-16T10:49:08.051Z,27.51
2022-08-16T10:50:19.551Z,27.59
2022-08-16T10:51:08.063Z,27.54
2022-08-16T10:52:18.729Z,27.59
2022-08-16T10:53:09.133Z,27.49
2022-08-16T10:54:08.091Z,27.55
2022-08-16T10:56:55.844Z,27.45
2022-08-16T10:57:12.206Z,27.42
2022-08-16T10:58:11.772Z,27.47
2022-08-16T11:00:21.220Z,27.49
2022-08-16T11:02:58.871Z,27.51
2022-08-16T11:03:43.060Z,27.40
2022-08-16T11:05:04.931Z,27.44
2022-08-16T11:05:10.604Z,27.48
2022-08-16T11:06:12.209Z,27.32
2022-08-16T11:07:08.766Z,27.47
2022-08-16T11:08:08.183Z,27.39
2022-08-16T11:09:25.215Z,27.42
2022-08-16T11:11:12.964Z,27.49
2022-08-16T11:12:14.378Z,27.55
2022-08-16T11:14:11.699Z,27.54
2022-08-16T11:15:12.106Z,27.48
2022-08-16T11:17:11.195Z,27.49
2022-08-16T11:18:48.292Z,27.55
2022-08-16T11:19:12.911Z,27.52
2022-08-16T11:21:08.288Z,27.55
2022-08-16T11:22:22.744Z,27.51
2022-08-16T11:23:09.300Z,27.67
2022-08-16T11:24:39.693Z,27.68
2022-08-16T11:25:12.181Z,27.70
2022-08-16T11:26:23.631Z,27.75
2022-08-16T11:27:32.563Z,27.73
2022-08-16T11:28:08.321Z,27.70
2022-08-16T11:29:13.217Z,27.74
2022-08-16T11:30:09.184Z,27.75
2022-08-16T11:31:08.375Z,27.77
2022-08-16T11:32:08.360Z,27.70
2022-08-16T11:33:08.367Z,27.74
2022-08-16T11:34:08.380Z,27.74
2022-08-16T11:35:13.895Z,27.77
2022-08-16T11:36:25.009Z,27.68
2022-08-16T11:37:14.999Z,27.71
2022-08-16T11:38:47.639Z,27.68
2022-08-16T11:39:10.337Z,27.70
2022-08-16T11:40:09.309Z,27.64
2022-08-16T11:41:09.424Z,27.78
2022-08-16T11:42:28.233Z,27.77
2022-08-16T11:43:10.176Z,27.70
2022-08-16T11:44:08.448Z,27.73
2022-08-16T11:45:08.447Z,27.82
2022-08-16T11:46:43.481Z,27.73
2022-08-16T11:47:09.551Z,27.77
2022-08-16T11:48:08.476Z,27.82
2022-08-16T11:49:13.257Z,27.82
2022-08-16T11:50:08.483Z,27.78
2022-08-16T11:51:08.489Z,27.80
2022-08-16T11:52:08.497Z,27.78
2022-08-16T11:53:09.529Z,27.87
2022-08-16T11:54:08.908Z,27.93
2022-08-16T11:55:08.561Z,28.01
2022-08-16T11:56:08.534Z,27.95
2022-08-16T11:57:08.898Z,28.01
2022-08-16T11:58:08.532Z,28.04
2022-08-16T11:59:09.563Z,28.02
2022-08-16T12:00:08.558Z,28.04
2022-08-16T12:01:10.716Z,28.02
2022-08-16T12:02:32.107Z,28.07
2022-08-16T12:03:08.587Z,28.14
2022-08-16T12:04:08.614Z,28.14
2022-08-16T12:05:09.604Z,28.19
2022-08-16T12:06:11.137Z,28.17
2022-08-16T12:07:08.605Z,28.19
2022-08-16T12:08:08.602Z,28.11
2022-08-16T12:09:08.641Z,28.11
2022-08-16T12:10:08.611Z,28.20
2022-08-16T12:11:09.635Z,28.26
2022-08-16T12:12:08.650Z,28.33
2022-08-16T12:13:10.181Z,28.25
2022-08-16T12:14:08.654Z,28.27
2022-08-16T12:15:08.667Z,28.35
2022-08-16T12:16:09.119Z,28.26
2022-08-16T12:17:09.678Z,28.25
2022-08-16T12:18:08.678Z,28.26
2022-08-16T12:19:10.381Z,28.26
2022-08-16T12:20:10.735Z,28.26
2022-08-16T12:21:09.795Z,28.25
2022-08-16T12:22:19.095Z,28.26
2022-08-16T12:23:09.739Z,28.22
2022-08-16T12:24:08.714Z,28.19
2022-08-16T12:25:08.760Z,28.15
2022-08-16T12:26:10.520Z,28.15
2022-08-16T12:27:08.746Z,28.02
2022-08-16T12:28:08.754Z,28.05
2022-08-16T12:29:09.783Z,28.00
2022-08-16T12:30:08.773Z,27.98
2022-08-16T12:31:08.778Z,27.98
2022-08-16T12:32:35.732Z,27.93
2022-08-16T12:33:08.807Z,27.93
2022-08-16T12:34:09.772Z,27.96
2022-08-16T12:35:10.112Z,27.93
2022-08-16T12:36:09.972Z,27.92
2022-08-16T12:37:11.728Z,27.86
2022-08-16T12:38:41.174Z,27.89
2022-08-16T12:39:08.859Z,27.96
2022-08-16T12:40:23.679Z,27.96
2022-08-16T12:41:10.388Z,27.92
2022-08-16T12:42:08.853Z,28.02
2022-08-16T12:43:08.880Z,28.01
2022-08-16T12:44:08.862Z,28.00
2022-08-16T12:45:08.869Z,28.01
2022-08-16T12:46:08.878Z,28.00
2022-08-16T12:47:09.924Z,27.96
2022-08-16T12:48:31.621Z,27.87
2022-08-16T12:49:08.901Z,27.93
2022-08-16T12:50:10.540Z,27.80
2022-08-16T12:51:19.599Z,27.86
2022-08-16T12:52:08.923Z,27.86
2022-08-16T12:53:09.941Z,27.83
2022-08-16T12:54:08.955Z,27.80
2022-08-16T12:55:08.941Z,27.83
2022-08-16T12:56:08.964Z,27.75
2022-08-16T12:57:14.072Z,27.82
2022-08-16T12:58:13.992Z,27.78
2022-08-16T12:59:11.379Z,27.78
2022-08-16T13:00:08.984Z,27.78
2022-08-16T13:01:09.022Z,27.80
2022-08-16T13:02:12.605Z,27.80
2022-08-16T13:03:08.998Z,27.75
2022-08-16T13:04:11.928Z,27.86
2022-08-16T13:05:10.033Z,27.77
2022-08-16T13:06:09.038Z,27.73
2022-08-16T13:07:09.029Z,27.75
2022-08-16T13:08:09.030Z,27.73
2022-08-16T13:09:09.054Z,27.77
2022-08-16T13:10:20.795Z,27.70
2022-08-16T13:11:10.074Z,27.77
2022-08-16T13:12:09.731Z,27.70
2022-08-16T13:13:09.264Z,27.70
2022-08-16T13:14:09.075Z,27.70
2022-08-16T13:15:09.092Z,27.71
2022-08-16T13:16:15.275Z,27.77
2022-08-16T13:17:18.504Z,27.80
2022-08-16T13:18:24.104Z,27.86
2022-08-16T13:19:09.145Z,27.75
2022-08-16T13:20:10.984Z,27.80
2022-08-16T13:21:09.644Z,27.77
2022-08-16T13:22:09.135Z,27.80
2022-08-16T13:23:10.152Z,27.74
2022-08-16T13:24:09.153Z,27.74
2022-08-16T13:25:09.191Z,27.74
2022-08-16T13:26:09.233Z,27.82
2022-08-16T13:27:09.191Z,27.75
2022-08-16T13:28:09.178Z,27.78
2022-08-16T13:29:10.210Z,27.74
2022-08-16T13:30:11.359Z,27.71
2022-08-16T13:31:09.245Z,27.70
2022-08-16T13:32:09.199Z,27.71
2022-08-16T13:33:12.477Z,27.71
2022-08-16T13:34:09.584Z,27.75
2022-08-16T13:35:11.823Z,27.80
2022-08-16T13:36:17.210Z,27.82
2022-08-16T13:37:09.235Z,27.80
2022-08-16T13:38:09.257Z,27.86
2022-08-16T13:39:09.261Z,27.82
2022-08-16T13:40:09.437Z,27.80
2022-08-16T13:41:10.289Z,27.85
2022-08-16T13:42:09.293Z,27.86
2022-08-16T13:43:11.435Z,27.95
2022-08-16T13:44:09.650Z,27.95
2022-08-16T13:45:09.292Z,28.04
2022-08-16T13:46:09.323Z,28.01
2022-08-16T13:47:10.327Z,28.11
2022-08-16T13:48:09.317Z,28.15
2022-08-16T13:49:09.354Z,28.17
2022-08-16T13:50:09.421Z,28.22
2022-08-16T13:51:09.331Z,28.23
2022-08-16T13:52:09.437Z,28.12
2022-08-16T13:53:10.354Z,28.22
2022-08-16T13:54:09.443Z,28.26
2022-08-16T13:55:17.554Z,28.32